createdAt,value
2023-05-16T00:00:53.218Z,7.07
2023-05-16T00:03:21.460Z,7.10
2023-05-16T00:05:48.646Z,6.97
2023-05-16T00:08:16.075Z,7.13
2023-05-16T00:10:43.498Z,6.60
2023-05-16T00:13:10.641Z,7.13
2023-05-16T00:15:38.509Z,7.17
2023-05-16T00:18:06.014Z,6.67
2023-05-16T00:20:33.160Z,7.10
2023-05-16T00:23:01.288Z,7.43
2023-05-16T00:25:28.863Z,7.13
2023-05-16T00:27:55.944Z,6.90
2023-05-16T00:30:23.090Z,7.37
2023-05-16T00:32:50.241Z,7.10
2023-05-16T00:35:17.357Z,7.03
2023-05-16T00:37:44.494Z,7.17
2023-05-16T00:40:11.829Z,7.57
2023-05-16T00:42:39.383Z,7.37
2023-05-16T00:45:07.192Z,7.00
2023-05-16T00:47:34.718Z,7.60
2023-05-16T00:50:01.869Z,6.93
2023-05-16T00:52:29.032Z,7.23
2023-05-16T00:54:56.449Z,6.90
2023-05-16T00:57:24.296Z,7.17
2023-05-16T00:59:51.617Z,7.27
2023-05-16T01:02:18.861Z,7.57
2023-05-16T01:04:48.329Z,7.63
2023-05-16T01:07:15.627Z,7.17
2023-05-16T01:09:43.561Z,7.07
2023-05-16T01:12:21.103Z,7.13
2023-05-16T01:15:03.421Z,7.50
2023-05-16T01:17:37.128Z,7.00
2023-05-16T01:20:20.191Z,7.00
2023-05-16T01:22:51.526Z,7.20
2023-05-16T01:25:23.056Z,7.50
2023-05-16T01:27:51.826Z,6.87
2023-05-16T01:30:19.937Z,6.80
2023-05-16T01:32:47.099Z,7.00
2023-05-16T01:35:15.541Z,7.07
2023-05-16T01:37:49.430Z,6.90
2023-05-16T01:40:24.755Z,7.40
2023-05-16T01:42:53.364Z,7.20
2023-05-16T01:45:32.615Z,7.23
2023-05-16T01:48:04.485Z,7.83
2023-05-16T01:50:33.056Z,7.40
2023-05-16T01:53:01.561Z,7.63
2023-05-16T01:55:37.584Z,6.93
2023-05-16T01:58:05.966Z,6.97
2023-05-16T02:00:33.104Z,6.77
2023-05-16T02:03:00.276Z,7.07
2023-05-16T02:05:27.978Z,7.07
2023-05-16T02:07:55.677Z,7.13
2023-05-16T02:10:23.064Z,7.67
2023-05-16T02:12:51.705Z,7.70
2023-05-16T02:15:19.112Z,7.30
2023-05-16T02:17:47.287Z,7.07
2023-05-16T02:20:14.969Z,7.23
2023-05-16T02:22:47.498Z,7.60
2023-05-16T02:25:16.117Z,7.50
2023-05-16T02:27:43.541Z,6.97
2023-05-16T02:30:13.983Z,6.93
2023-05-16T02:32:41.270Z,7.93
2023-05-16T02:35:08.534Z,7.60
2023-05-16T02:37:35.744Z,7.63
2023-05-16T02:40:05.718Z,7.50
2023-05-16T02:42:33.009Z,7.43
2023-05-16T02:45:00.831Z,7.13
2023-05-16T02:47:27.984Z,7.07
2023-05-16T02:49:55.147Z,7.37
2023-05-16T02:52:22.550Z,7.60
2023-05-16T02:55:09.215Z,7.70
2023-05-16T02:57:37.748Z,7.67
2023-05-16T03:00:06.046Z,8.17
2023-05-16T03:02:33.416Z,7.73
2023-05-16T03:05:00.680Z,7.63
2023-05-16T03:07:27.746Z,7.03
2023-05-16T03:09:54.849Z,7.23
2023-05-16T03:12:21.952Z,7.63
2023-05-16T03:14:49.073Z,7.40
2023-05-16T03:17:16.138Z,8.30
2023-05-16T03:19:43.550Z,7.57
2023-05-16T03:22:10.689Z,8.03
2023-05-16T03:24:37.832Z,8.60
2023-05-16T03:27:06.029Z,8.20
2023-05-16T03:29:33.081Z,8.17
2023-05-16T03:32:00.371Z,8.47
2023-05-16T03:34:28.176Z,8.63
2023-05-16T03:36:55.412Z,8.73
2023-05-16T03:39:22.548Z,8.37
2023-05-16T03:41:49.667Z,8.43
2023-05-16T03:44:16.733Z,8.80
2023-05-16T03:46:44.202Z,8.57
2023-05-16T03:49:11.626Z,8.70
2023-05-16T03:51:38.675Z,8.63
2023-05-16T03:54:06.046Z,9.23
2023-05-16T03:56:33.450Z,9.13
2023-05-16T03:59:00.544Z,9.17
2023-05-16T04:01:28.038Z,8.73
2023-05-16T04:03:55.438Z,9.13
2023-05-16T04:06:22.523Z,9.37
2023-05-16T04:08:49.601Z,9.20
2023-05-16T04:11:17.017Z,9.10
2023-05-16T04:13:44.144Z,9.07
2023-05-16T04:16:11.290Z,9.70
2023-05-16T04:18:38.783Z,8.73
2023-05-16T04:21:06.070Z,8.97
2023-05-16T04:23:33.159Z,9.53
2023-05-16T04:26:01.958Z,9.03
2023-05-16T04:28:29.067Z,9.17
2023-05-16T04:30:56.215Z,8.97
2023-05-16T04:33:23.312Z,9.27
2023-05-16T04:35:50.368Z,9.53
2023-05-16T04:38:17.479Z,9.67
2023-05-16T04:40:44.831Z,9.60
2023-05-16T04:43:11.916Z,9.43
2023-05-16T04:45:39.002Z,8.87
2023-05-16T04:48:06.691Z,8.87
2023-05-16T04:50:33.760Z,9.23
2023-05-16T04:53:00.850Z,9.47
2023-05-16T04:55:28.100Z,9.43
2023-05-16T04:57:55.487Z,9.27
2023-05-16T05:00:22.853Z,10.20
2023-05-16T05:02:50.148Z,9.00
2023-05-16T05:05:17.449Z,9.57
2023-05-16T05:07:44.571Z,10.37
2023-05-16T05:10:12.110Z,10.43
2023-05-16T05:12:39.186Z,9.63
2023-05-16T05:15:06.608Z,10.00
2023-05-16T05:17:33.913Z,9.17
2023-05-16T05:20:02.891Z,10.60
2023-05-16T05:22:30.279Z,10.73
2023-05-16T05:24:57.381Z,10.17
2023-05-16T05:27:25.390Z,10.40
2023-05-16T05:29:52.499Z,10.27
2023-05-16T05:32:19.598Z,11.00
2023-05-16T05:34:46.732Z,9.80
2023-05-16T05:37:14.536Z,10.70
2023-05-16T05:39:41.793Z,10.00
2023-05-16T05:42:08.893Z,10.53
2023-05-16T05:44:37.678Z,11.10
2023-05-16T05:47:05.850Z,11.23
2023-05-16T05:49:32.976Z,11.17
2023-05-16T05:52:00.137Z,11.17
2023-05-16T05:54:27.793Z,12.03
2023-05-16T05:56:54.900Z,11.63
2023-05-16T05:59:22.019Z,11.47
2023-05-16T06:01:52.846Z,11.47
2023-05-16T06:04:20.745Z,10.63
2023-05-16T06:06:48.088Z,12.10
2023-05-16T06:09:15.436Z,11.87
2023-05-16T06:11:43.291Z,11.73
2023-05-16T06:14:10.827Z,11.83
2023-05-16T06:16:40.446Z,11.70
2023-05-16T06:19:07.657Z,11.80
2023-05-16T06:21:34.828Z,11.90
2023-05-16T06:24:01.920Z,12.73
2023-05-16T06:26:28.997Z,12.60
2023-05-16T06:28:56.074Z,12.50
2023-05-16T06:31:23.245Z,13.07
2023-05-16T06:33:50.377Z,15.17
2023-05-16T06:36:17.533Z,14.73
2023-05-16T06:38:45.022Z,15.03
2023-05-16T06:41:12.130Z,15.17
2023-05-16T06:43:39.243Z,15.10
2023-05-16T06:46:06.679Z,16.67
2023-05-16T06:48:33.844Z,16.57
2023-05-16T06:51:00.991Z,16.13
2023-05-16T06:53:28.712Z,15.80
2023-05-16T06:55:56.058Z,15.73
2023-05-16T06:58:23.176Z,16.60
2023-05-16T07:00:50.846Z,16.73
2023-05-16T07:03:18.623Z,16.83
2023-05-16T07:05:46.042Z,17.13
2023-05-16T07:08:13.255Z,16.20
2023-05-16T07:10:40.778Z,15.33
2023-05-16T07:13:07.928Z,15.30
2023-05-16T07:15:35.153Z,14.27
2023-05-16T07:18:02.385Z,13.40
2023-05-16T07:20:29.566Z,12.33
2023-05-16T07:22:57.668Z,12.47
2023-05-16T07:25:25.348Z,11.93
2023-05-16T07:27:52.758Z,10.77
2023-05-16T07:30:20.826Z,11.17
2023-05-16T07:32:48.042Z,10.53
2023-05-16T07:35:15.532Z,10.40
2023-05-16T07:37:43.805Z,11.10
2023-05-16T07:40:11.628Z,11.23
2023-05-16T07:42:38.785Z,10.93
2023-05-16T07:45:07.429Z,10.10
2023-05-16T07:47:35.369Z,10.23
2023-05-16T07:50:02.730Z,10.67
2023-05-16T07:52:29.886Z,9.97
2023-05-16T07:54:57.425Z,9.27
2023-05-16T07:57:25.306Z,9.70
2023-05-16T07:59:52.958Z,8.87
2023-05-16T08:02:20.541Z,8.53
2023-05-16T08:04:48.916Z,8.40
2023-05-16T08:07:16.107Z,8.63
2023-05-16T08:09:43.251Z,8.17
2023-05-16T08:12:10.477Z,8.63
2023-05-16T08:14:37.692Z,8.70
2023-05-16T08:17:04.888Z,8.43
2023-05-16T08:19:33.061Z,8.47
2023-05-16T08:22:00.245Z,8.33
2023-05-16T08:24:27.381Z,7.93
2023-05-16T08:26:54.596Z,7.77
2023-05-16T08:29:22.256Z,8.13
2023-05-16T08:31:49.546Z,8.17
2023-05-16T08:34:16.743Z,7.53
2023-05-16T08:36:43.901Z,8.07
2023-05-16T08:39:11.682Z,8.47
2023-05-16T08:41:39.024Z,7.73
2023-05-16T08:44:06.792Z,7.90
2023-05-16T08:46:37.197Z,7.70
2023-05-16T08:49:07.998Z,7.30
2023-05-16T08:51:35.899Z,8.20
2023-05-16T08:54:14.955Z,7.93
2023-05-16T08:56:42.666Z,7.87
2023-05-16T08:59:10.126Z,7.40
2023-05-16T09:01:41.352Z,7.33
2023-05-16T09:04:09.695Z,7.43
2023-05-16T09:06:37.379Z,7.33
2023-05-16T09:09:07.683Z,7.53
2023-05-16T09:11:36.915Z,7.80
2023-05-16T09:14:05.541Z,7.60
2023-05-16T09:16:32.835Z,7.13
2023-05-16T09:19:01.764Z,7.67
2023-05-16T09:21:33.545Z,7.50
2023-05-16T09:24:07.676Z,7.03
2023-05-16T09:26:36.532Z,6.87
2023-05-16T09:29:11.056Z,6.93
2023-05-16T09:31:38.750Z,6.43
2023-05-16T09:34:09.298Z,6.60
2023-05-16T09:36:36.797Z,7.03
2023-05-16T09:39:04.278Z,6.53
2023-05-16T09:41:35.029Z,7.20
2023-05-16T09:44:05.984Z,6.63
2023-05-16T09:46:35.307Z,6.70
2023-05-16T09:49:03.345Z,5.93
2023-05-16T09:51:31.612Z,6.93
2023-05-16T09:53:59.930Z,6.63
2023-05-16T09:56:27.056Z,6.33
2023-05-16T09:58:54.255Z,6.50
2023-05-16T10:01:21.483Z,6.20
2023-05-16T10:03:48.792Z,6.00
2023-05-16T10:06:16.830Z,5.80
2023-05-16T10:08:44.377Z,5.33
2023-05-16T10:11:11.805Z,6.37
2023-05-16T10:13:39.780Z,6.10
2023-05-16T10:16:08.330Z,5.43
2023-05-16T10:18:36.795Z,5.17
2023-05-16T10:21:08.923Z,5.37
2023-05-16T10:23:39.279Z,5.70
2023-05-16T10:26:06.641Z,5.70
2023-05-16T10:28:33.978Z,5.73
2023-05-16T10:31:03.123Z,5.27
2023-05-16T10:33:30.304Z,5.90
2023-05-16T10:35:57.829Z,5.53
2023-05-16T10:38:25.330Z,5.60
2023-05-16T10:40:52.857Z,5.50
2023-05-16T10:43:27.081Z,5.77
2023-05-16T10:45:57.918Z,5.70
2023-05-16T10:48:32.863Z,5.10
2023-05-16T10:51:00.090Z,5.13
2023-05-16T10:53:34.177Z,5.53
2023-05-16T10:56:01.414Z,5.20
2023-05-16T10:58:40.497Z,5.03
2023-05-16T11:01:26.045Z,4.70
2023-05-16T11:03:59.566Z,5.10
2023-05-16T11:06:26.728Z,5.10
2023-05-16T11:09:08.930Z,4.87
2023-05-16T11:11:49.531Z,4.93
2023-05-16T11:14:28.990Z,4.47
2023-05-16T11:17:16.632Z,4.60
2023-05-16T11:19:57.709Z,4.50
2023-05-16T11:22:29.384Z,4.47
2023-05-16T11:25:02.751Z,4.53
2023-05-16T11:27:31.349Z,4.27
2023-05-16T11:30:07.836Z,4.10
2023-05-16T11:32:35.835Z,4.30
2023-05-16T11:35:04.088Z,4.50
2023-05-16T11:37:31.531Z,4.10
2023-05-16T11:40:02.641Z,4.60
2023-05-16T11:42:31.923Z,4.57
2023-05-16T11:45:09.008Z,4.60
2023-05-16T11:47:44.403Z,4.60
2023-05-16T11:50:13.739Z,4.53
2023-05-16T11:52:41.058Z,4.70
2023-05-16T11:55:15.683Z,4.43
2023-05-16T11:57:46.638Z,4.63
2023-05-16T12:00:18.215Z,4.37
2023-05-16T12:02:47.737Z,4.30
2023-05-16T12:05:15.929Z,4.10
2023-05-16T12:07:46.527Z,4.13
2023-05-16T12:10:14.652Z,4.30
2023-05-16T12:12:42.885Z,3.67
2023-05-16T12:15:10.740Z,4.13
2023-05-16T12:17:38.477Z,4.50
2023-05-16T12:20:16.393Z,4.10
2023-05-16T12:22:46.825Z,4.07
2023-05-16T12:25:32.025Z,3.97
2023-05-16T12:28:00.492Z,3.83
2023-05-16T12:30:28.671Z,3.50
2023-05-16T12:32:57.518Z,3.90
2023-05-16T12:35:31.159Z,3.93
2023-05-16T12:37:58.412Z,3.90
2023-05-16T12:40:29.133Z,3.70
2023-05-16T12:42:56.727Z,3.70
2023-05-16T12:45:24.097Z,3.83
2023-05-16T12:47:51.435Z,4.17
2023-05-16T12:50:18.629Z,4.03
2023-05-16T12:52:53.160Z,4.03
2023-05-16T12:55:21.111Z,3.83
2023-05-16T12:57:48.954Z,4.00
2023-05-16T13:00:19.042Z,3.53
2023-05-16T13:02:46.597Z,3.90
2023-05-16T13:05:14.171Z,3.20
2023-05-16T13:07:41.657Z,3.73
2023-05-16T13:10:10.729Z,3.70
2023-05-16T13:12:39.138Z,3.57
2023-05-16T13:15:07.950Z,3.13
2023-05-16T13:17:35.456Z,3.63
2023-05-16T13:20:03.549Z,3.40
2023-05-16T13:22:31.108Z,3.60
2023-05-16T13:24:58.215Z,3.50
2023-05-16T13:27:25.353Z,3.70
2023-05-16T13:29:52.490Z,3.30
2023-05-16T13:32:19.610Z,3.90
2023-05-16T13:34:46.767Z,3.00
2023-05-16T13:37:14.196Z,3.10
2023-05-16T13:39:41.626Z,3.30
2023-05-16T13:42:08.754Z,3.07
2023-05-16T13:44:35.938Z,2.97
2023-05-16T13:47:03.751Z,3.03
2023-05-16T13:49:31.097Z,2.97
2023-05-16T13:51:58.723Z,2.90
2023-05-16T13:54:26.495Z,3.10
2023-05-16T13:56:53.664Z,3.10
2023-05-16T13:59:37.326Z,3.03
2023-05-16T14:02:08.214Z,3.20
2023-05-16T14:04:35.400Z,2.90
2023-05-16T14:07:02.522Z,2.90
2023-05-16T14:09:29.647Z,2.90
2023-05-16T14:11:56.788Z,2.70
2023-05-16T14:14:23.923Z,2.70
2023-05-16T14:16:51.377Z,2.60
2023-05-16T14:19:19.542Z,2.50
2023-05-16T14:21:46.947Z,2.60
2023-05-16T14:24:14.125Z,2.50
2023-05-16T14:26:41.517Z,2.60
2023-05-16T14:29:08.646Z,2.80
2023-05-16T14:31:38.928Z,2.57
2023-05-16T14:34:06.237Z,3.33
2023-05-16T14:36:33.594Z,2.70
2023-05-16T14:39:00.844Z,2.90
2023-05-16T14:41:27.985Z,2.80
2023-05-16T14:43:56.103Z,2.50
2023-05-16T14:46:23.262Z,2.43
2023-05-16T14:48:51.078Z,2.50
2023-05-16T14:51:18.248Z,2.90
2023-05-16T14:53:47.160Z,2.53
2023-05-16T14:56:14.425Z,2.47
2023-05-16T14:58:41.595Z,2.43
2023-05-16T15:01:08.754Z,3.53
2023-05-16T15:03:53.632Z,2.50
2023-05-16T15:06:22.264Z,2.33
2023-05-16T15:08:49.466Z,2.40
2023-05-16T15:11:16.609Z,3.40
2023-05-16T15:13:43.724Z,2.60
2023-05-16T15:16:11.296Z,3.60
2023-05-16T15:18:38.630Z,2.90
2023-05-16T15:21:05.810Z,2.60
2023-05-16T15:23:33.178Z,2.83
2023-05-16T15:26:00.415Z,2.57
2023-05-16T15:28:27.535Z,2.60
2023-05-16T15:30:54.999Z,2.30
2023-05-16T15:33:22.114Z,2.73
2023-05-16T15:35:49.220Z,2.30
2023-05-16T15:38:16.372Z,2.30
2023-05-16T15:40:43.476Z,2.43
2023-05-16T15:43:10.698Z,2.40
2023-05-16T15:45:39.427Z,2.50
2023-05-16T15:48:07.795Z,2.20
2023-05-16T15:50:35.136Z,2.40
2023-05-16T15:53:02.359Z,2.33
2023-05-16T15:55:29.657Z,2.60
2023-05-16T15:57:58.528Z,2.00
2023-05-16T16:00:26.099Z,2.40
2023-05-16T16:02:53.603Z,2.17
2023-05-16T16:05:20.920Z,2.20
2023-05-16T16:07:48.058Z,2.10
2023-05-16T16:10:15.234Z,2.50
2023-05-16T16:12:42.414Z,2.47
2023-05-16T16:15:10.819Z,2.13
2023-05-16T16:17:38.082Z,2.10
2023-05-16T16:20:05.435Z,2.10
2023-05-16T16:22:32.615Z,2.13
2023-05-16T16:25:00.637Z,2.17
2023-05-16T16:27:27.840Z,2.00
2023-05-16T16:29:55.207Z,2.30
2023-05-16T16:32:22.674Z,2.10
2023-05-16T16:34:50.205Z,1.73
2023-05-16T16:37:17.550Z,1.80
2023-05-16T16:39:44.656Z,1.83
2023-05-16T16:42:11.933Z,1.70
2023-05-16T16:44:39.252Z,1.80
2023-05-16T16:47:06.545Z,1.87
2023-05-16T16:49:33.690Z,1.83
2023-05-16T16:52:00.852Z,1.80
2023-05-16T16:54:28.148Z,1.90
2023-05-16T16:56:55.483Z,1.70
2023-05-16T16:59:22.944Z,1.87
2023-05-16T17:01:50.084Z,1.70
2023-05-16T17:04:17.213Z,1.90
2023-05-16T17:06:46.492Z,1.77
2023-05-16T17:09:16.848Z,1.70
2023-05-16T17:11:46.589Z,1.70
2023-05-16T17:14:14.760Z,1.70
2023-05-16T17:16:42.111Z,1.80
2023-05-16T17:19:10.265Z,1.80
2023-05-16T17:21:40.326Z,2.20
2023-05-16T17:24:07.837Z,2.03
2023-05-16T17:26:35.235Z,2.20
2023-05-16T17:29:04.844Z,2.27
2023-05-16T17:31:32.026Z,1.80
2023-05-16T17:33:59.215Z,2.30
2023-05-16T17:36:26.340Z,2.13
2023-05-16T17:38:53.785Z,1.93
2023-05-16T17:41:22.065Z,1.83
2023-05-16T17:43:49.329Z,1.80
2023-05-16T17:46:16.447Z,1.80
2023-05-16T17:48:44.352Z,1.67
2023-05-16T17:51:11.466Z,1.70
2023-05-16T17:53:39.174Z,1.77
2023-05-16T17:56:07.897Z,1.90
2023-05-16T17:58:35.009Z,1.87
2023-05-16T18:01:03.173Z,1.83
2023-05-16T18:03:30.615Z,1.97
2023-05-16T18:05:57.806Z,2.00
2023-05-16T18:08:25.162Z,1.80
2023-05-16T18:10:52.783Z,1.90
2023-05-16T18:13:20.425Z,1.70
2023-05-16T18:15:47.711Z,2.40
2023-05-16T18:18:14.926Z,2.10
2023-05-16T18:20:42.858Z,6.70
2023-05-16T18:23:09.950Z,3.30
2023-05-16T18:25:37.373Z,1.83
2023-05-16T18:28:04.587Z,1.97
2023-05-16T18:30:31.731Z,1.97
2023-05-16T18:33:00.136Z,1.73
2023-05-16T18:35:28.436Z,2.20
2023-05-16T18:37:55.973Z,1.97
2023-05-16T18:40:23.370Z,1.80
2023-05-16T18:42:50.951Z,2.00
2023-05-16T18:45:18.155Z,1.87
2023-05-16T18:47:45.998Z,2.20
2023-05-16T18:50:13.173Z,2.27
2023-05-16T18:52:40.671Z,2.17
2023-05-16T18:55:08.430Z,2.23
2023-05-16T18:57:35.851Z,2.20
2023-05-16T19:00:03.928Z,2.17
2023-05-16T19:02:41.655Z,2.60
2023-05-16T19:05:10.677Z,2.37
2023-05-16T19:07:38.329Z,2.23
2023-05-16T19:10:05.756Z,2.07
2023-05-16T19:12:32.902Z,2.40
2023-05-16T19:15:00.309Z,2.50
2023-05-16T19:17:27.644Z,2.60
2023-05-16T19:19:54.855Z,2.50
2023-05-16T19:22:22.246Z,2.27
2023-05-16T19:24:49.387Z,2.40
2023-05-16T19:27:17.132Z,2.50
2023-05-16T19:29:44.278Z,2.43
2023-05-16T19:32:11.592Z,2.20
2023-05-16T19:34:38.907Z,2.40
2023-05-16T19:37:06.218Z,2.30
2023-05-16T19:39:33.346Z,2.43
2023-05-16T19:42:07.104Z,2.83
2023-05-16T19:44:35.041Z,3.00
2023-05-16T19:47:02.253Z,2.80
2023-05-16T19:49:31.828Z,2.70
2023-05-16T19:51:59.009Z,2.97
2023-05-16T19:54:26.216Z,2.50
2023-05-16T19:56:55.477Z,2.40
2023-05-16T19:59:23.342Z,2.40
2023-05-16T20:01:50.469Z,2.40
2023-05-16T20:04:17.773Z,2.43
2023-05-16T20:06:45.340Z,2.37
2023-05-16T20:09:12.527Z,2.40
2023-05-16T20:11:39.677Z,2.53
2023-05-16T20:14:07.078Z,2.90
2023-05-16T20:16:34.223Z,2.10
2023-05-16T20:19:01.507Z,2.93
2023-05-16T20:21:28.742Z,2.70
2023-05-16T20:23:55.890Z,2.97
2023-05-16T20:26:23.118Z,2.63
2023-05-16T20:28:50.302Z,2.73
2023-05-16T20:31:17.465Z,2.80
2023-05-16T20:33:44.875Z,3.70
2023-05-16T20:36:12.142Z,2.73
2023-05-16T20:38:39.240Z,3.00
2023-05-16T20:41:06.690Z,3.00
2023-05-16T20:43:34.067Z,2.50
2023-05-16T20:46:01.303Z,2.30
2023-05-16T20:48:28.488Z,2.57
2023-05-16T20:50:56.588Z,2.63
2023-05-16T20:53:23.740Z,2.80
2023-05-16T20:55:51.358Z,3.00
2023-05-16T20:58:18.571Z,2.80
2023-05-16T21:00:45.756Z,2.90
2023-05-16T21:03:12.884Z,2.90
2023-05-16T21:05:40.634Z,2.90
2023-05-16T21:08:07.962Z,2.97
2023-05-16T21:10:35.137Z,3.30
2023-05-16T21:13:02.614Z,2.83
2023-05-16T21:15:29.961Z,2.90
2023-05-16T21:17:57.365Z,3.10
2023-05-16T21:20:24.682Z,3.07
2023-05-16T21:22:51.800Z,2.87
2023-05-16T21:25:18.920Z,2.83
2023-05-16T21:27:46.143Z,3.40
2023-05-16T21:30:13.611Z,2.97
2023-05-16T21:32:40.808Z,3.00
2023-05-16T21:35:08.894Z,2.47
2023-05-16T21:37:36.095Z,2.73
2023-05-16T21:40:03.722Z,2.40
2023-05-16T21:42:31.337Z,2.30
2023-05-16T21:44:58.470Z,2.07
2023-05-16T21:47:26.168Z,2.10
2023-05-16T21:49:53.409Z,2.50
2023-05-16T21:52:20.576Z,2.10
2023-05-16T21:54:51.677Z,2.10
2023-05-16T21:57:19.763Z,2.27
2023-05-16T21:59:50.266Z,2.27
2023-05-16T22:02:18.500Z,1.90
2023-05-16T22:04:45.689Z,2.07
2023-05-16T22:07:12.817Z,1.70
2023-05-16T22:09:39.910Z,1.90
2023-05-16T22:12:07.254Z,1.80
2023-05-16T22:14:34.533Z,1.83
2023-05-16T22:17:01.907Z,1.60
2023-05-16T22:19:29.204Z,1.90
2023-05-16T22:21:56.494Z,1.70
2023-05-16T22:24:23.614Z,1.80
2023-05-16T22:26:50.781Z,1.90
2023-05-16T22:29:17.982Z,1.90
2023-05-16T22:31:45.134Z,2.00
2023-05-16T22:34:12.516Z,1.80
2023-05-16T22:36:39.648Z,1.73
2023-05-16T22:39:07.121Z,1.60
2023-05-16T22:41:34.378Z,1.57
2023-05-16T22:44:01.495Z,1.57
2023-05-16T22:46:28.701Z,1.57
2023-05-16T22:48:56.225Z,1.63
2023-05-16T22:51:23.400Z,1.50
2023-05-16T22:53:50.509Z,1.40
2023-05-16T22:56:17.677Z,1.27
2023-05-16T22:58:44.781Z,1.47
2023-05-16T23:01:12.009Z,1.50
2023-05-16T23:03:39.431Z,1.70
2023-05-16T23:06:06.871Z,1.30
2023-05-16T23:08:33.965Z,1.50
2023-05-16T23:11:01.254Z,1.37
2023-05-16T23:13:28.383Z,1.20
2023-05-16T23:15:55.506Z,1.80
2023-05-16T23:18:22.889Z,1.50
2023-05-16T23:20:50.347Z,1.60
2023-05-16T23:23:17.516Z,1.50
2023-05-16T23:25:44.739Z,1.07
2023-05-16T23:28:11.966Z,1.40
2023-05-16T23:30:39.095Z,1.20
2023-05-16T23:33:06.388Z,1.20
2023-05-16T23:35:33.628Z,1.20
2023-05-16T23:38:01.369Z,1.20
2023-05-16T23:40:28.810Z,1.17
2023-05-16T23:42:56.054Z,1.40
2023-05-16T23:45:23.271Z,1.30
2023-05-16T23:47:50.499Z,1.07
2023-05-16T23:50:17.739Z,1.30
2023-05-16T23:52:44.860Z,1.40
2023-05-16T23:55:12.389Z,1.17
2023-05-16T23:57:41.120Z,1.17
